M I D A S
Marine Information and Data Acquisition System
Tripno 1203 of the Zeeleeuw from 2007-01-22 08:14:11 to 2007-01-22 15:55:20
Back to CruiseResearch ActivitiesStationsMapUnderway DataData graphs

EquipmentUnitsComment
TimeDGPSUTC
LatitudeDGPSDM.mWGS84
LongitudeDGPSDM.mWGS84
HeadingGyrodeg 
SOGDGPSknotsSpeed over ground
COGDGPSdegCourse over ground
DepthEcho soundermeters200 kHz
Missing or incorrect values are displayed as -999
Navigation data collected by the RV Zeeleeuw from 2007-01-22 07:31:52 to 2007-01-22 16:03:59
                                                                                    Next 1000 lines
Time Latitude Longitude Heading SOG COG Depth
2007-01-22 07:32:02 51°13.62 2°56.042 127.3 -999 358 -999
2007-01-22 07:32:07 51°13.62 2°56.043 127.1 0.1 124 -999
2007-01-22 07:32:12 51°13.62 2°56.043 127.4 0.1 136 -999
2007-01-22 07:32:17 51°13.62 2°56.043 127.5 -999 153 -999
2007-01-22 07:32:22 51°13.62 2°56.043 127.6 -999 114 -999
2007-01-22 07:32:27 51°13.62 2°56.043 127.7 -999 178 -999
2007-01-22 07:32:32 51°13.62 2°56.043 128 -999 152 -999
2007-01-22 07:32:37 51°13.619 2°56.043 128.3 -999 183 -999
2007-01-22 07:32:42 51°13.619 2°56.043 128.4 -999 151 -999
2007-01-22 07:32:47 51°13.619 2°56.043 128.6 0.1 154 -999
2007-01-22 07:32:52 51°13.619 2°56.043 128.7 -999 147 -999
2007-01-22 07:32:57 51°13.619 2°56.043 128.7 -999 215 -999
2007-01-22 07:33:02 51°13.62 2°56.043 128.7 -999 155 -999
2007-01-22 07:33:07 51°13.619 2°56.043 128.8 -999 254 -999
2007-01-22 07:33:12 51°13.619 2°56.043 128.8 -999 286 -999
2007-01-22 07:33:17 51°13.619 2°56.043 128.7 -999 7 -999
2007-01-22 07:33:22 51°13.619 2°56.043 128.6 -999 327 -999
2007-01-22 07:33:27 51°13.619 2°56.043 128.4 -999 12 -999
2007-01-22 07:33:32 51°13.62 2°56.043 128.3 -999 8 -999
2007-01-22 07:33:37 51°13.62 2°56.043 128.2 -999 341 -999
2007-01-22 07:33:42 51°13.62 2°56.043 128.1 0.1 352 -999
2007-01-22 07:33:47 51°13.62 2°56.042 128.1 -999 274 -999
2007-01-22 07:33:52 51°13.62 2°56.042 128.2 -999 179 -999
2007-01-22 07:33:57 51°13.62 2°56.042 128.2 -999 140 -999
2007-01-22 07:34:02 51°13.62 2°56.042 128.2 -999 104 -999
2007-01-22 07:34:07 51°13.62 2°56.042 128.2 -999 88 -999
2007-01-22 07:34:12 51°13.62 2°56.042 128.2 -999 84 -999
2007-01-22 07:34:17 51°13.62 2°56.042 128.2 -999 209 -999
2007-01-22 07:34:22 51°13.62 2°56.042 128.2 -999 307 -999
2007-01-22 07:34:27 51°13.62 2°56.042 128.2 -999 241 -999
2007-01-22 07:34:32 51°13.62 2°56.042 128.2 -999 316 -999
2007-01-22 07:34:37 51°13.62 2°56.042 128.3 -999 149 -999
2007-01-22 07:34:42 51°13.62 2°56.042 128.3 -999 170 -999
2007-01-22 07:34:47 51°13.62 2°56.042 128.3 -999 160 -999
2007-01-22 07:34:52 51°13.62 2°56.042 128.3 -999 116 -999
2007-01-22 07:34:57 51°13.62 2°56.042 128.3 -999 111 -999
2007-01-22 07:35:02 51°13.62 2°56.042 128.3 -999 162 -999
2007-01-22 07:35:07 51°13.62 2°56.042 128.3 -999 171 -999
2007-01-22 07:35:12 51°13.62 2°56.042 128.3 -999 185 -999
2007-01-22 07:35:17 51°13.62 2°56.042 128.3 -999 153 -999
2007-01-22 07:35:22 51°13.62 2°56.042 128.3 -999 217 -999
2007-01-22 07:35:27 51°13.62 2°56.042 128.3 -999 189 -999
2007-01-22 07:35:32 51°13.62 2°56.042 128.3 -999 189 -999
2007-01-22 07:35:37 51°13.62 2°56.042 128.3 -999 153 -999
2007-01-22 07:35:42 51°13.62 2°56.042 128.3 -999 71 -999
2007-01-22 07:35:47 51°13.62 2°56.042 128.3 -999 288 -999
2007-01-22 07:35:52 51°13.62 2°56.042 128.3 -999 222 -999
2007-01-22 07:35:57 51°13.62 2°56.042 128.3 -999 314 -999
2007-01-22 07:36:02 51°13.62 2°56.043 128.3 -999 191 -999
2007-01-22 07:36:07 51°13.62 2°56.043 128.3 -999 187 -999
2007-01-22 07:36:12 51°13.62 2°56.043 128.3 -999 191 -999
2007-01-22 07:36:17 51°13.62 2°56.043 128.3 -999 222 -999
2007-01-22 07:36:22 51°13.62 2°56.043 128.3 -999 170 -999
2007-01-22 07:36:27 51°13.62 2°56.043 128.3 -999 173 -999
2007-01-22 07:36:32 51°13.62 2°56.043 128.3 -999 104 -999
2007-01-22 07:36:37 51°13.62 2°56.043 128.3 -999 120 -999
2007-01-22 07:36:42 51°13.62 2°56.043 128.3 -999 210 -999
2007-01-22 07:36:47 51°13.62 2°56.043 128.3 -999 207 -999
2007-01-22 07:36:52 51°13.62 2°56.043 128.3 -999 1 -999
2007-01-22 07:36:57 51°13.62 2°56.043 128.3 -999 288 -999
2007-01-22 07:37:02 51°13.62 2°56.043 128.3 -999 170 -999
2007-01-22 07:37:07 51°13.619 2°56.043 128.3 -999 218 -999
2007-01-22 07:37:12 51°13.62 2°56.043 128.3 -999 345 -999
2007-01-22 07:37:17 51°13.62 2°56.043 128.3 -999 298 -999
2007-01-22 07:37:22 51°13.62 2°56.043 128.3 -999 44 -999
2007-01-22 07:37:27 51°13.62 2°56.043 128.3 -999 292 -999
2007-01-22 07:37:32 51°13.62 2°56.043 128.3 -999 296 -999
2007-01-22 07:37:37 51°13.62 2°56.043 128.3 -999 68 -999
2007-01-22 07:37:42 51°13.62 2°56.043 128.3 -999 125 -999
2007-01-22 07:37:47 51°13.62 2°56.043 128.3 -999 192 -999
2007-01-22 07:37:52 51°13.62 2°56.043 128.3 -999 320 -999
2007-01-22 07:37:57 51°13.62 2°56.043 128.3 -999 102 -999
2007-01-22 07:38:02 51°13.62 2°56.043 128.3 -999 69 -999
2007-01-22 07:38:07 51°13.62 2°56.043 128.3 -999 120 -999
2007-01-22 07:38:12 51°13.619 2°56.043 128.3 -999 164 -999
2007-01-22 07:38:17 51°13.619 2°56.043 128.4 -999 67 -999
2007-01-22 07:38:22 51°13.619 2°56.043 128.4 -999 113 -999
2007-01-22 07:38:27 51°13.62 2°56.043 128.4 -999 173 -999
2007-01-22 07:38:32 51°13.62 2°56.043 128.4 -999 143 -999
2007-01-22 07:38:37 51°13.62 2°56.043 128.4 -999 334 -999
2007-01-22 07:38:42 51°13.62 2°56.043 128.4 -999 262 -999
2007-01-22 07:38:47 51°13.62 2°56.043 128.4 -999 355 -999
2007-01-22 07:38:52 51°13.62 2°56.043 128.4 -999 27 -999
2007-01-22 07:38:57 51°13.619 2°56.043 128.4 -999 103 -999
2007-01-22 07:39:02 51°13.619 2°56.043 128.4 -999 68 -999
2007-01-22 07:39:07 51°13.619 2°56.043 128.4 -999 142 -999
2007-01-22 07:39:12 51°13.619 2°56.043 128.3 -999 184 -999
2007-01-22 07:39:17 51°13.619 2°56.043 128.3 -999 71 -999
2007-01-22 07:39:22 51°13.619 2°56.043 128.3 -999 250 -999
2007-01-22 07:39:27 51°13.62 2°56.043 128.3 -999 250 -999
2007-01-22 07:39:32 51°13.62 2°56.043 128.2 -999 278 -999
2007-01-22 07:39:37 51°13.62 2°56.043 128.2 -999 299 -999
2007-01-22 07:39:42 51°13.62 2°56.043 128.1 -999 315 -999
2007-01-22 07:39:47 51°13.62 2°56.043 128.1 -999 265 -999
2007-01-22 07:39:52 51°13.62 2°56.043 128.1 -999 291 -999
2007-01-22 07:39:57 51°13.62 2°56.043 128 -999 159 -999
2007-01-22 07:40:02 51°13.62 2°56.043 128 -999 150 -999
2007-01-22 07:40:07 51°13.62 2°56.044 128 -999 126 -999
2007-01-22 07:40:12 51°13.62 2°56.044 128.1 -999 160 -999
2007-01-22 07:40:17 51°13.62 2°56.044 128.2 -999 138 -999
2007-01-22 07:40:22 51°13.62 2°56.044 128.4 -999 146 -999
2007-01-22 07:40:27 51°13.62 2°56.044 128.4 -999 171 -999
2007-01-22 07:40:32 51°13.62 2°56.044 128.4 -999 135 -999
2007-01-22 07:40:37 51°13.62 2°56.044 128.5 -999 194 -999
2007-01-22 07:40:42 51°13.62 2°56.044 128.5 -999 306 -999
2007-01-22 07:40:47 51°13.62 2°56.044 128.5 -999 327 -999
2007-01-22 07:40:52 51°13.62 2°56.044 128.5 -999 6 -999
2007-01-22 07:40:57 51°13.62 2°56.044 128.5 -999 49 -999
2007-01-22 07:41:02 51°13.62 2°56.044 128.5 -999 187 -999
2007-01-22 07:41:07 51°13.62 2°56.044 128.5 -999 224 -999
2007-01-22 07:41:12 51°13.62 2°56.044 128.5 -999 142 -999
2007-01-22 07:41:17 51°13.62 2°56.044 128.6 -999 157 -999
2007-01-22 07:41:22 51°13.62 2°56.044 128.6 -999 200 -999
2007-01-22 07:41:27 51°13.62 2°56.044 128.6 -999 135 -999
2007-01-22 07:41:32 51°13.62 2°56.044 128.6 -999 200 -999
2007-01-22 07:41:37 51°13.62 2°56.044 128.6 -999 263 -999
2007-01-22 07:41:42 51°13.62 2°56.044 128.6 -999 57 -999
2007-01-22 07:41:47 51°13.62 2°56.044 128.6 -999 238 -999
2007-01-22 07:41:52 51°13.62 2°56.044 128.6 -999 160 -999
2007-01-22 07:41:57 51°13.62 2°56.044 128.6 -999 220 -999
2007-01-22 07:42:02 51°13.62 2°56.044 128.5 -999 235 -999
2007-01-22 07:42:07 51°13.62 2°56.044 128.5 -999 159 -999
2007-01-22 07:42:12 51°13.62 2°56.045 128.5 -999 123 -999
2007-01-22 07:42:17 51°13.62 2°56.045 128.5 -999 62 -999
2007-01-22 07:42:22 51°13.62 2°56.045 128.5 -999 249 -999
2007-01-22 07:42:27 51°13.62 2°56.045 128.5 -999 5 -999
2007-01-22 07:42:32 51°13.62 2°56.045 128.5 -999 225 -999
2007-01-22 07:42:37 51°13.62 2°56.045 128.5 -999 269 -999
2007-01-22 07:42:42 51°13.62 2°56.045 128.5 -999 249 -999
2007-01-22 07:42:47 51°13.62 2°56.045 128.5 -999 230 -999
2007-01-22 07:42:52 51°13.62 2°56.045 128.5 -999 339 -999
2007-01-22 07:42:57 51°13.62 2°56.044 128.5 -999 225 -999
2007-01-22 07:43:02 51°13.62 2°56.045 128.5 -999 99 -999
2007-01-22 07:43:07 51°13.62 2°56.045 128.5 -999 106 -999
2007-01-22 07:43:12 51°13.621 2°56.044 128.4 -999 251 -999
2007-01-22 07:43:17 51°13.62 2°56.044 128.4 -999 252 -999
2007-01-22 07:43:22 51°13.62 2°56.044 128.4 -999 150 -999
2007-01-22 07:43:27 51°13.62 2°56.044 128.4 -999 303 -999
2007-01-22 07:43:32 51°13.62 2°56.044 128.4 -999 304 -999
2007-01-22 07:43:37 51°13.62 2°56.044 128.4 -999 201 -999
2007-01-22 07:43:42 51°13.62 2°56.044 128.4 -999 38 -999
2007-01-22 07:43:47 51°13.62 2°56.044 128.4 -999 201 -999
2007-01-22 07:43:52 51°13.62 2°56.044 128.4 -999 86 -999
2007-01-22 07:43:57 51°13.62 2°56.044 128.4 -999 209 -999
2007-01-22 07:44:02 51°13.62 2°56.044 128.4 -999 31 -999
2007-01-22 07:44:07 51°13.62 2°56.044 128.4 -999 261 -999
2007-01-22 07:44:12 51°13.62 2°56.044 128.4 -999 99 -999
2007-01-22 07:44:17 51°13.62 2°56.044 128.5 -999 223 -999
2007-01-22 07:44:22 51°13.62 2°56.044 128.6 -999 82 -999
2007-01-22 07:44:27 51°13.62 2°56.044 128.6 -999 175 -999
2007-01-22 07:44:32 51°13.621 2°56.044 128.7 -999 146 -999
2007-01-22 07:44:37 51°13.621 2°56.044 128.8 -999 145 -999
2007-01-22 07:44:42 51°13.621 2°56.044 128.9 -999 137 -999
2007-01-22 07:44:47 51°13.621 2°56.044 128.9 -999 168 -999
2007-01-22 07:44:52 51°13.621 2°56.044 128.9 -999 241 -999
2007-01-22 07:44:57 51°13.621 2°56.044 128.9 -999 277 -999
2007-01-22 07:45:02 51°13.62 2°56.044 128.9 -999 270 -999
2007-01-22 07:45:07 51°13.62 2°56.044 128.9 -999 302 -999
2007-01-22 07:45:12 51°13.62 2°56.044 128.9 -999 75 -999
2007-01-22 07:45:17 51°13.62 2°56.044 128.8 -999 212 -999
2007-01-22 07:45:22 51°13.62 2°56.044 128.8 -999 205 -999
2007-01-22 07:45:27 51°13.62 2°56.044 128.7 -999 14 -999
2007-01-22 07:45:32 51°13.62 2°56.044 128.7 -999 226 -999
2007-01-22 07:45:37 51°13.62 2°56.044 128.7 -999 242 -999
2007-01-22 07:45:42 51°13.62 2°56.044 128.7 -999 283 -999
2007-01-22 07:45:47 51°13.62 2°56.044 128.7 -999 270 -999
2007-01-22 07:45:52 51°13.62 2°56.044 128.6 -999 163 -999
2007-01-22 07:45:57 51°13.62 2°56.044 128.5 -999 180 -999
2007-01-22 07:46:02 51°13.62 2°56.044 128.5 -999 156 -999
2007-01-22 07:46:07 51°13.62 2°56.044 128.5 -999 211 -999
2007-01-22 07:46:12 51°13.62 2°56.044 128.5 -999 166 -999
2007-01-22 07:46:17 51°13.62 2°56.044 128.5 -999 265 -999
2007-01-22 07:46:22 51°13.62 2°56.044 128.5 -999 235 -999
2007-01-22 07:46:27 51°13.62 2°56.044 128.5 -999 68 -999
2007-01-22 07:46:32 51°13.62 2°56.044 128.6 -999 299 -999
2007-01-22 07:46:37 51°13.62 2°56.044 128.6 -999 156 -999
2007-01-22 07:46:42 51°13.62 2°56.044 128.6 -999 99 -999
2007-01-22 07:46:47 51°13.62 2°56.043 128.6 -999 171 -999
2007-01-22 07:46:52 51°13.62 2°56.043 128.6 -999 244 -999
2007-01-22 07:46:57 51°13.62 2°56.043 128.6 -999 257 -999
2007-01-22 07:47:02 51°13.62 2°56.043 128.6 -999 163 -999
2007-01-22 07:47:07 51°13.62 2°56.043 128.6 -999 342 -999
2007-01-22 07:47:12 51°13.62 2°56.043 128.6 -999 343 -999
2007-01-22 07:47:17 51°13.62 2°56.043 128.6 -999 79 -999
2007-01-22 07:47:22 51°13.62 2°56.043 128.6 -999 182 -999
2007-01-22 07:47:27 51°13.62 2°56.043 128.6 -999 222 -999
2007-01-22 07:47:32 51°13.62 2°56.043 128.6 -999 217 7
2007-01-22 07:47:37 51°13.62 2°56.043 128.6 -999 253 -999
2007-01-22 07:47:42 51°13.62 2°56.043 128.6 -999 235 -999
2007-01-22 07:47:47 51°13.62 2°56.043 128.6 -999 173 -999
2007-01-22 07:47:52 51°13.62 2°56.043 128.6 -999 164 -999
2007-01-22 07:47:57 51°13.62 2°56.043 128.6 -999 102 -999
2007-01-22 07:48:02 51°13.62 2°56.043 128.6 -999 333 -999
2007-01-22 07:48:07 51°13.62 2°56.043 128.6 -999 220 -999
2007-01-22 07:48:12 51°13.62 2°56.043 128.6 -999 191 -999
2007-01-22 07:48:17 51°13.62 2°56.043 128.6 -999 91 -999
2007-01-22 07:48:22 51°13.62 2°56.043 128.6 -999 201 -999
2007-01-22 07:48:27 51°13.62 2°56.043 128.6 -999 244 7
2007-01-22 07:48:32 51°13.62 2°56.043 128.6 -999 206 6.9
2007-01-22 07:48:36 51°13.62 2°56.043 128.6 -999 348 7
2007-01-22 07:48:41 51°13.62 2°56.043 128.6 -999 215 7
2007-01-22 07:48:46 51°13.62 2°56.043 128.6 -999 156 -999
2007-01-22 07:48:52 51°13.62 2°56.043 128.6 -999 27 7
2007-01-22 07:48:56 51°13.62 2°56.043 128.6 -999 221 7
2007-01-22 07:49:01 51°13.62 2°56.044 128.6 -999 118 5.3
2007-01-22 07:49:07 51°13.62 2°56.044 128.6 -999 208 7
2007-01-22 07:49:12 51°13.62 2°56.044 128.5 -999 122 -999
2007-01-22 07:49:17 51°13.62 2°56.044 128.5 -999 148 -999
2007-01-22 07:49:22 51°13.62 2°56.044 128.5 -999 187 -999
2007-01-22 07:49:27 51°13.62 2°56.044 128.5 -999 152 -999
2007-01-22 07:49:32 51°13.62 2°56.044 128.5 -999 109 -999
2007-01-22 07:49:37 51°13.62 2°56.044 128.5 -999 219 -999
2007-01-22 07:49:42 51°13.62 2°56.044 128.6 -999 116 -999
2007-01-22 07:49:47 51°13.62 2°56.043 128.6 -999 58 -999
2007-01-22 07:49:52 51°13.62 2°56.043 128.6 -999 233 7.1
2007-01-22 07:49:57 51°13.62 2°56.043 128.6 -999 120 -999
2007-01-22 07:50:02 51°13.62 2°56.043 128.6 -999 196 -999
2007-01-22 07:50:07 51°13.62 2°56.043 128.6 -999 101 -999
2007-01-22 07:50:12 51°13.62 2°56.043 128.6 -999 197 -999
2007-01-22 07:50:17 51°13.62 2°56.043 128.7 -999 296 7
2007-01-22 07:50:22 51°13.62 2°56.043 128.7 -999 209 -999
2007-01-22 07:50:27 51°13.62 2°56.043 128.7 -999 295 -999
2007-01-22 07:50:32 51°13.62 2°56.043 128.7 -999 226 -999
2007-01-22 07:50:37 51°13.62 2°56.043 128.7 -999 57 -999
2007-01-22 07:50:42 51°13.62 2°56.043 128.7 -999 204 -999
2007-01-22 07:50:47 51°13.62 2°56.043 128.7 -999 187 -999
2007-01-22 07:50:52 51°13.62 2°56.043 128.7 -999 262 -999
2007-01-22 07:50:57 51°13.62 2°56.043 128.7 -999 297 -999
2007-01-22 07:51:02 51°13.62 2°56.043 128.7 -999 30 -999
2007-01-22 07:51:07 51°13.62 2°56.043 128.7 -999 165 -999
2007-01-22 07:51:12 51°13.62 2°56.043 128.7 -999 133 -999
2007-01-22 07:51:17 51°13.62 2°56.043 128.7 -999 57 -999
2007-01-22 07:51:22 51°13.62 2°56.043 128.7 -999 182 -999
2007-01-22 07:51:27 51°13.62 2°56.043 128.7 -999 334 -999
2007-01-22 07:51:32 51°13.62 2°56.043 128.7 -999 24 -999
2007-01-22 07:51:37 51°13.62 2°56.043 128.7 -999 83 -999
2007-01-22 07:51:42 51°13.62 2°56.043 128.7 -999 139 -999
2007-01-22 07:51:47 51°13.62 2°56.043 128.7 -999 197 -999
2007-01-22 07:51:52 51°13.62 2°56.043 128.7 -999 349 -999
2007-01-22 07:51:57 51°13.62 2°56.043 128.7 -999 243 7
2007-01-22 07:52:02 51°13.62 2°56.043 128.7 -999 230 -999
2007-01-22 07:52:07 51°13.62 2°56.043 128.7 -999 201 6.9
2007-01-22 07:52:12 51°13.62 2°56.043 128.7 -999 222 -999
2007-01-22 07:52:17 51°13.62 2°56.043 128.7 -999 344 -999
2007-01-22 07:52:22 51°13.62 2°56.043 128.7 -999 156 -999
2007-01-22 07:52:27 51°13.62 2°56.043 128.7 -999 188 -999
2007-01-22 07:52:32 51°13.62 2°56.043 128.7 -999 182 -999
2007-01-22 07:52:37 51°13.619 2°56.043 128.7 -999 202 6.9
2007-01-22 07:52:42 51°13.619 2°56.043 128.7 -999 254 -999
2007-01-22 07:52:47 51°13.619 2°56.043 128.7 -999 356 -999
2007-01-22 07:52:52 51°13.619 2°56.043 128.7 -999 206 -999
2007-01-22 07:52:57 51°13.619 2°56.043 128.7 -999 275 -999
2007-01-22 07:53:02 51°13.619 2°56.043 128.7 -999 330 -999
2007-01-22 07:53:07 51°13.619 2°56.043 128.7 -999 225 -999
2007-01-22 07:53:12 51°13.619 2°56.043 128.7 -999 52 7
2007-01-22 07:53:17 51°13.619 2°56.043 128.7 -999 333 -999
2007-01-22 07:53:22 51°13.619 2°56.043 128.7 -999 186 -999
2007-01-22 07:53:27 51°13.619 2°56.043 128.7 -999 142 6.9
2007-01-22 07:53:32 51°13.619 2°56.043 128.7 -999 114 -999
2007-01-22 07:53:37 51°13.619 2°56.043 128.7 -999 231 -999
2007-01-22 07:53:42 51°13.619 2°56.043 128.7 -999 72 -999
2007-01-22 07:53:47 51°13.619 2°56.043 128.7 -999 133 -999
2007-01-22 07:53:52 51°13.619 2°56.043 128.7 -999 99 -999
2007-01-22 07:53:57 51°13.62 2°56.043 128.7 -999 272 -999
2007-01-22 07:54:02 51°13.62 2°56.043 128.7 -999 234 6.9
2007-01-22 07:54:07 51°13.62 2°56.043 128.7 -999 232 6.9
2007-01-22 07:54:12 51°13.62 2°56.043 128.7 -999 19 6.9
2007-01-22 07:54:16 51°13.62 2°56.043 128.7 -999 230 6.9
2007-01-22 07:54:21 51°13.62 2°56.043 128.8 -999 181 -999
2007-01-22 07:54:27 51°13.62 2°56.043 128.8 -999 114 -999
2007-01-22 07:54:32 51°13.62 2°56.043 128.7 -999 128 6.9
2007-01-22 07:54:37 51°13.62 2°56.043 128.7 -999 223 -999
2007-01-22 07:54:42 51°13.62 2°56.043 128.7 -999 71 -999
2007-01-22 07:54:46 51°13.62 2°56.043 128.7 -999 99 7.2
2007-01-22 07:54:52 51°13.62 2°56.043 128.8 -999 149 -999
2007-01-22 07:54:57 51°13.62 2°56.043 128.8 -999 3 -999
2007-01-22 07:55:02 51°13.619 2°56.043 128.8 -999 216 -999
2007-01-22 07:55:07 51°13.619 2°56.043 128.7 -999 218 6.9
2007-01-22 07:55:12 51°13.619 2°56.043 128.7 -999 233 -999
2007-01-22 07:55:17 51°13.62 2°56.043 128.8 -999 63 -999
2007-01-22 07:55:22 51°13.62 2°56.043 128.8 -999 359 -999
2007-01-22 07:55:27 51°13.62 2°56.043 128.8 -999 285 -999
2007-01-22 07:55:32 51°13.62 2°56.043 128.7 -999 240 -999
2007-01-22 07:55:37 51°13.62 2°56.043 128.7 -999 12 6.9
2007-01-22 07:55:42 51°13.62 2°56.043 128.7 -999 182 7
2007-01-22 07:55:47 51°13.62 2°56.043 128.7 -999 75 -999
2007-01-22 07:55:52 51°13.62 2°56.043 128.7 -999 192 6.9
2007-01-22 07:55:56 51°13.62 2°56.043 128.6 -999 253 -999
2007-01-22 07:56:02 51°13.62 2°56.043 128.6 -999 329 6.9
2007-01-22 07:56:07 51°13.62 2°56.043 128.6 -999 314 -999
2007-01-22 07:56:12 51°13.62 2°56.043 128.6 -999 171 7.1
2007-01-22 07:56:16 51°13.62 2°56.043 128.6 -999 221 5.2
2007-01-22 07:56:21 51°13.62 2°56.043 128.6 -999 252 6.9
2007-01-22 07:56:27 51°13.62 2°56.043 128.5 -999 75 -999
2007-01-22 07:56:32 51°13.62 2°56.043 128.5 -999 181 6.9
2007-01-22 07:56:36 51°13.62 2°56.043 128.7 -999 312 6.9
2007-01-22 07:56:42 51°13.62 2°56.043 128.7 -999 327 -999
2007-01-22 07:56:47 51°13.62 2°56.043 128.7 -999 232 6.9
2007-01-22 07:56:52 51°13.62 2°56.043 128.7 -999 138 -999
2007-01-22 07:56:57 51°13.62 2°56.043 128.7 -999 152 6.9
2007-01-22 07:57:02 51°13.62 2°56.043 128.5 -999 130 7
2007-01-22 07:57:07 51°13.62 2°56.043 128.5 -999 147 -999
2007-01-22 07:57:12 51°13.62 2°56.043 128.5 -999 117 6.9
2007-01-22 07:57:17 51°13.62 2°56.043 128.6 -999 172 6.9
2007-01-22 07:57:22 51°13.62 2°56.043 128.7 -999 201 -999
2007-01-22 07:57:27 51°13.62 2°56.043 128.8 -999 217 6.9
2007-01-22 07:57:32 51°13.62 2°56.043 128.9 -999 222 -999
2007-01-22 07:57:37 51°13.62 2°56.043 128.9 -999 313 6.9
2007-01-22 07:57:42 51°13.62 2°56.042 128.9 -999 327 -999
2007-01-22 07:57:47 51°13.62 2°56.042 128.9 -999 313 -999
2007-01-22 07:57:52 51°13.62 2°56.042 128.9 -999 298 6.9
2007-01-22 07:57:56 51°13.62 2°56.042 128.9 -999 218 6.9
2007-01-22 07:58:02 51°13.62 2°56.042 128.9 -999 187 6.9
2007-01-22 07:58:07 51°13.62 2°56.042 128.9 -999 105 5.2
2007-01-22 07:58:12 51°13.62 2°56.042 128.9 -999 169 -999
2007-01-22 07:58:17 51°13.62 2°56.042 128.9 -999 112 7.1
2007-01-22 07:58:22 51°13.62 2°56.042 128.9 -999 187 6.9
2007-01-22 07:58:27 51°13.62 2°56.042 128.9 -999 174 -999
2007-01-22 07:58:32 51°13.62 2°56.042 128.9 -999 271 -999
2007-01-22 07:58:37 51°13.62 2°56.042 128.9 -999 244 -999
2007-01-22 07:58:42 51°13.62 2°56.042 128.9 -999 49 -999
2007-01-22 07:58:47 51°13.62 2°56.042 128.9 -999 137 6.9
2007-01-22 07:58:52 51°13.62 2°56.042 128.9 -999 121 6.9
2007-01-22 07:58:57 51°13.62 2°56.042 128.9 -999 169 -999
2007-01-22 07:59:02 51°13.62 2°56.042 128.9 -999 198 6.9
2007-01-22 07:59:07 51°13.62 2°56.042 128.9 -999 2 -999
2007-01-22 07:59:12 51°13.62 2°56.042 128.9 -999 243 6.9
2007-01-22 07:59:17 51°13.62 2°56.042 128.9 -999 288 -999
2007-01-22 07:59:22 51°13.62 2°56.042 128.9 -999 312 -999
2007-01-22 07:59:27 51°13.62 2°56.042 128.9 -999 189 -999
2007-01-22 07:59:32 51°13.62 2°56.042 128.9 -999 47 6.9
2007-01-22 07:59:37 51°13.62 2°56.042 128.9 -999 160 -999
2007-01-22 07:59:41 51°13.62 2°56.042 128.9 -999 128 6.9
2007-01-22 07:59:47 51°13.62 2°56.042 128.8 -999 132 -999
2007-01-22 07:59:52 51°13.62 2°56.042 128.8 -999 195 -999
2007-01-22 07:59:57 51°13.62 2°56.042 128.7 -999 223 -999
2007-01-22 08:00:02 51°13.62 2°56.042 128.8 -999 3 -999
2007-01-22 08:00:07 51°13.62 2°56.042 128.9 -999 342 -999
2007-01-22 08:00:12 51°13.62 2°56.042 128.9 -999 328 -999
2007-01-22 08:00:17 51°13.62 2°56.042 128.9 -999 246 7.1
2007-01-22 08:00:22 51°13.62 2°56.042 128.9 -999 195 -999
2007-01-22 08:00:27 51°13.62 2°56.042 128.8 -999 141 -999
2007-01-22 08:00:32 51°13.62 2°56.042 128.7 -999 120 -999
2007-01-22 08:00:37 51°13.62 2°56.043 128.7 -999 155 6.9
2007-01-22 08:00:42 51°13.62 2°56.042 128.7 -999 166 -999
2007-01-22 08:00:47 51°13.62 2°56.042 128.7 -999 150 -999
2007-01-22 08:00:52 51°13.62 2°56.042 128.7 -999 302 -999
2007-01-22 08:00:57 51°13.62 2°56.042 128.7 -999 252 6.9
2007-01-22 08:01:02 51°13.62 2°56.042 128.7 -999 135 -999
2007-01-22 08:01:07 51°13.62 2°56.042 128.8 -999 182 -999
2007-01-22 08:01:12 51°13.62 2°56.043 128.8 -999 127 6.9
2007-01-22 08:01:17 51°13.62 2°56.042 128.8 -999 128 -999
2007-01-22 08:01:22 51°13.62 2°56.042 128.7 -999 230 6.9
2007-01-22 08:01:27 51°13.62 2°56.042 128.7 -999 169 -999
2007-01-22 08:01:32 51°13.62 2°56.042 128.7 -999 33 -999
2007-01-22 08:01:37 51°13.62 2°56.042 128.7 -999 343 -999
2007-01-22 08:01:42 51°13.62 2°56.042 128.7 -999 278 -999
2007-01-22 08:01:47 51°13.62 2°56.042 128.7 -999 270 -999
2007-01-22 08:01:52 51°13.619 2°56.042 128.7 -999 267 -999
2007-01-22 08:01:57 51°13.619 2°56.042 128.7 -999 129 -999
2007-01-22 08:02:02 51°13.619 2°56.042 128.7 -999 114 6.8
2007-01-22 08:02:07 51°13.619 2°56.042 128.5 -999 179 6.9
2007-01-22 08:02:12 51°13.619 2°56.043 128.5 -999 184 -999
2007-01-22 08:02:17 51°13.619 2°56.042 128.5 -999 227 7
2007-01-22 08:02:22 51°13.619 2°56.043 128.7 -999 299 6.8
2007-01-22 08:02:26 51°13.619 2°56.043 128.7 -999 48 6.8
2007-01-22 08:02:31 51°13.619 2°56.043 128.8 -999 35 5.3
2007-01-22 08:02:37 51°13.619 2°56.043 128.8 -999 99 6.9
2007-01-22 08:02:42 51°13.619 2°56.043 128.8 -999 160 -999
2007-01-22 08:02:47 51°13.619 2°56.043 128.7 -999 175 -999
2007-01-22 08:02:52 51°13.619 2°56.043 128.7 -999 171 6.9
2007-01-22 08:02:57 51°13.619 2°56.043 128.7 -999 36 -999
2007-01-22 08:03:02 51°13.619 2°56.043 128.8 -999 269 6.9
2007-01-22 08:03:07 51°13.619 2°56.043 128.8 -999 325 -999
2007-01-22 08:03:12 51°13.619 2°56.043 128.8 -999 197 6.9
2007-01-22 08:03:17 51°13.619 2°56.043 128.8 -999 257 -999
2007-01-22 08:03:22 51°13.619 2°56.043 128.8 -999 142 -999
2007-01-22 08:03:27 51°13.619 2°56.043 128.8 -999 135 -999
2007-01-22 08:03:32 51°13.619 2°56.043 128.9 -999 189 -999
2007-01-22 08:03:37 51°13.619 2°56.043 128.9 -999 2 6.8
2007-01-22 08:03:41 51°13.619 2°56.043 128.9 -999 253 6.8
2007-01-22 08:03:47 51°13.619 2°56.043 128.9 -999 353 -999
2007-01-22 08:03:52 51°13.619 2°56.043 128.9 -999 239 -999
2007-01-22 08:03:57 51°13.619 2°56.043 128.9 -999 293 -999
2007-01-22 08:04:02 51°13.619 2°56.043 128.9 -999 221 -999
2007-01-22 08:04:07 51°13.619 2°56.043 128.9 -999 91 -999
2007-01-22 08:04:12 51°13.619 2°56.043 129 -999 82 -999
2007-01-22 08:04:17 51°13.619 2°56.043 129 -999 86 -999
2007-01-22 08:04:22 51°13.619 2°56.043 129 -999 128 6.9
2007-01-22 08:04:26 51°13.619 2°56.043 129 -999 276 6.8
2007-01-22 08:04:32 51°13.619 2°56.042 129 -999 293 6.8
2007-01-22 08:04:37 51°13.619 2°56.042 128.9 -999 233 -999
2007-01-22 08:04:42 51°13.619 2°56.042 128.9 -999 205 -999
2007-01-22 08:04:47 51°13.618 2°56.042 128.9 -999 230 -999
2007-01-22 08:04:52 51°13.618 2°56.042 128.9 -999 38 -999
2007-01-22 08:04:57 51°13.618 2°56.042 128.9 -999 125 -999
2007-01-22 08:05:02 51°13.618 2°56.042 128.9 -999 121 6.8
2007-01-22 08:05:07 51°13.618 2°56.042 128.9 -999 211 -999
2007-01-22 08:05:12 51°13.618 2°56.042 128.9 -999 235 -999
2007-01-22 08:05:17 51°13.618 2°56.042 128.8 -999 262 -999
2007-01-22 08:05:22 51°13.618 2°56.042 128.9 -999 305 6.8
2007-01-22 08:05:27 51°13.618 2°56.042 128.9 -999 302 -999
2007-01-22 08:05:32 51°13.618 2°56.042 128.9 -999 308 6.8
2007-01-22 08:05:36 51°13.618 2°56.042 128.8 -999 238 6.9
2007-01-22 08:05:42 51°13.618 2°56.042 128.7 -999 224 -999
2007-01-22 08:05:47 51°13.618 2°56.042 128.6 -999 190 6.8
2007-01-22 08:05:52 51°13.618 2°56.042 128.5 -999 190 6.8
2007-01-22 08:05:56 51°13.618 2°56.042 128.5 -999 95 6.8
2007-01-22 08:06:02 51°13.618 2°56.042 128.5 -999 244 -999
2007-01-22 08:06:07 51°13.618 2°56.042 128.5 -999 160 -999
2007-01-22 08:06:12 51°13.618 2°56.042 128.5 -999 84 6.8
2007-01-22 08:06:16 51°13.617 2°56.042 128.5 -999 217 7
2007-01-22 08:06:21 51°13.617 2°56.042 128.5 -999 224 7
2007-01-22 08:06:26 51°13.617 2°56.042 128.6 -999 195 -999
2007-01-22 08:06:32 51°13.617 2°56.042 128.6 -999 143 -999
2007-01-22 08:06:37 51°13.618 2°56.042 128.6 -999 172 6.8
2007-01-22 08:06:42 51°13.618 2°56.042 128.7 -999 266 -999
2007-01-22 08:06:47 51°13.618 2°56.042 128.9 -999 313 -999
2007-01-22 08:06:52 51°13.618 2°56.042 128.9 -999 231 6.9
2007-01-22 08:06:57 51°13.619 2°56.042 128.9 -999 112 6.8
2007-01-22 08:07:02 51°13.619 2°56.042 128.9 -999 150 -999
2007-01-22 08:07:07 51°13.619 2°56.042 128.9 -999 250 -999
2007-01-22 08:07:12 51°13.619 2°56.042 128.9 -999 23 -999
2007-01-22 08:07:17 51°13.619 2°56.042 128.9 -999 312 6.9
2007-01-22 08:07:22 51°13.619 2°56.042 128.9 -999 259 6.9
2007-01-22 08:07:27 51°13.619 2°56.042 128.9 -999 289 6.9
2007-01-22 08:07:32 51°13.618 2°56.042 129 -999 10 -999
2007-01-22 08:07:37 51°13.618 2°56.042 129 -999 143 6.8
2007-01-22 08:07:41 51°13.617 2°56.042 129 -999 198 6.8
2007-01-22 08:07:47 51°13.617 2°56.042 129 -999 208 -999
2007-01-22 08:07:52 51°13.618 2°56.042 129 -999 238 -999
2007-01-22 08:07:57 51°13.619 2°56.042 129 -999 28 -999
2007-01-22 08:08:02 51°13.619 2°56.042 129 -999 273 -999
2007-01-22 08:08:07 51°13.619 2°56.042 129 -999 242 -999
2007-01-22 08:08:12 51°13.619 2°56.042 129 -999 125 6.8
2007-01-22 08:08:17 51°13.62 2°56.042 129 -999 230 -999
2007-01-22 08:08:22 51°13.62 2°56.042 129 -999 207 -999
2007-01-22 08:08:27 51°13.62 2°56.042 129 -999 118 6.8
2007-01-22 08:08:32 51°13.62 2°56.042 129 -999 50 6.8
2007-01-22 08:08:36 51°13.619 2°56.042 129 -999 41 6.8
2007-01-22 08:08:41 51°13.618 2°56.042 129 -999 212 6.9
2007-01-22 08:08:47 51°13.617 2°56.042 129 -999 90 -999
2007-01-22 08:08:52 51°13.617 2°56.042 129 -999 187 -999
2007-01-22 08:08:57 51°13.617 2°56.042 129 -999 275 -999
2007-01-22 08:09:02 51°13.617 2°56.042 129 -999 251 -999
2007-01-22 08:09:07 51°13.618 2°56.042 129 -999 239 -999
2007-01-22 08:09:12 51°13.618 2°56.042 129 -999 215 -999
2007-01-22 08:09:17 51°13.618 2°56.042 129 -999 162 -999
2007-01-22 08:09:22 51°13.618 2°56.042 129 -999 207 6.8
2007-01-22 08:09:27 51°13.618 2°56.042 129 -999 152 -999
2007-01-22 08:09:32 51°13.618 2°56.042 129 -999 49 6.8
2007-01-22 08:09:36 51°13.618 2°56.042 129 -999 48 -999
2007-01-22 08:09:42 51°13.618 2°56.042 129 -999 48 -999
2007-01-22 08:09:47 51°13.619 2°56.042 129 -999 44 -999
2007-01-22 08:09:52 51°13.619 2°56.042 129 -999 212 -999
2007-01-22 08:09:57 51°13.619 2°56.042 129 -999 309 -999
2007-01-22 08:10:02 51°13.619 2°56.042 129 -999 206 -999
2007-01-22 08:10:07 51°13.619 2°56.043 128.9 -999 76 -999
2007-01-22 08:10:12 51°13.619 2°56.043 128.9 -999 171 -999
2007-01-22 08:10:17 51°13.619 2°56.043 128.8 -999 319 -999
2007-01-22 08:10:22 51°13.619 2°56.043 128.8 -999 249 -999
2007-01-22 08:10:27 51°13.619 2°56.043 128.8 -999 41 -999
2007-01-22 08:10:32 51°13.619 2°56.043 128.8 -999 259 6.7
2007-01-22 08:10:36 51°13.619 2°56.043 128.8 -999 206 6.7
2007-01-22 08:10:42 51°13.619 2°56.043 128.8 -999 80 -999
2007-01-22 08:10:47 51°13.619 2°56.043 128.8 -999 140 -999
2007-01-22 08:10:52 51°13.619 2°56.043 128.8 -999 185 -999
2007-01-22 08:10:57 51°13.619 2°56.043 128.8 -999 178 -999
2007-01-22 08:11:02 51°13.619 2°56.043 128.8 -999 222 -999
2007-01-22 08:11:07 51°13.619 2°56.043 128.8 -999 138 -999
2007-01-22 08:11:12 51°13.618 2°56.043 128.8 -999 235 -999
2007-01-22 08:11:17 51°13.618 2°56.042 128.8 -999 237 6.9
2007-01-22 08:11:22 51°13.617 2°56.042 128.8 -999 225 6.7
2007-01-22 08:11:26 51°13.617 2°56.042 128.8 -999 194 6.7
2007-01-22 08:11:31 51°13.617 2°56.042 128.8 -999 228 6.7
2007-01-22 08:11:36 51°13.617 2°56.042 129 -999 186 6.7
2007-01-22 08:11:41 51°13.617 2°56.042 129 -999 225 6.7
2007-01-22 08:11:46 51°13.617 2°56.042 129 -999 184 6.8
2007-01-22 08:11:51 51°13.618 2°56.042 129 -999 234 6.9
2007-01-22 08:11:55 51°13.618 2°56.042 129 -999 124 -999
2007-01-22 08:12:01 51°13.618 2°56.043 129 -999 63 -999
2007-01-22 08:12:07 51°13.618 2°56.043 129 -999 11 -999
2007-01-22 08:12:12 51°13.618 2°56.043 128.9 -999 261 -999
2007-01-22 08:12:16 51°13.618 2°56.043 128.9 -999 21 6.7
2007-01-22 08:12:21 51°13.618 2°56.043 128.9 -999 153 -999
2007-01-22 08:12:27 51°13.619 2°56.043 128.9 -999 268 6.7
2007-01-22 08:12:32 51°13.619 2°56.043 128.9 -999 193 -999
2007-01-22 08:12:37 51°13.619 2°56.043 128.9 -999 112 -999
2007-01-22 08:12:42 51°13.619 2°56.043 128.9 -999 206 -999
2007-01-22 08:12:47 51°13.619 2°56.043 128.9 -999 244 -999
2007-01-22 08:12:52 51°13.619 2°56.043 128.9 -999 260 6.9
2007-01-22 08:12:57 51°13.619 2°56.043 128.9 -999 325 -999
2007-01-22 08:13:02 51°13.619 2°56.043 128.9 -999 80 -999
2007-01-22 08:13:07 51°13.619 2°56.043 128.9 -999 81 -999
2007-01-22 08:13:12 51°13.619 2°56.043 128.9 -999 191 -999
2007-01-22 08:13:17 51°13.619 2°56.043 128.9 -999 45 -999
2007-01-22 08:13:22 51°13.62 2°56.043 128.9 -999 190 6.8
2007-01-22 08:13:26 51°13.62 2°56.043 128.9 -999 296 6.8
2007-01-22 08:13:32 51°13.62 2°56.043 128.9 -999 250 -999
2007-01-22 08:13:37 51°13.619 2°56.043 128.9 -999 18 6.8
2007-01-22 08:13:42 51°13.619 2°56.043 128.9 -999 15 -999
2007-01-22 08:13:47 51°13.619 2°56.043 128.9 -999 240 -999
2007-01-22 08:13:52 51°13.619 2°56.043 128.9 -999 54 -999
2007-01-22 08:13:57 51°13.619 2°56.043 128.9 -999 205 6.8
2007-01-22 08:14:02 51°13.619 2°56.043 128.9 -999 102 6.8
2007-01-22 08:14:06 51°13.619 2°56.043 128.9 -999 122 6.7
2007-01-22 08:14:12 51°13.619 2°56.043 128.9 -999 78 -999
2007-01-22 08:14:16 51°13.619 2°56.043 128.9 -999 189 -999
2007-01-22 08:14:22 51°13.619 2°56.043 128.7 -999 171 -999
2007-01-22 08:14:27 51°13.619 2°56.043 128.7 -999 99 6.7
2007-01-22 08:14:32 51°13.619 2°56.043 128.7 -999 140 -999
2007-01-22 08:14:37 51°13.619 2°56.043 128.5 -999 120 -999
2007-01-22 08:14:42 51°13.619 2°56.043 128.4 -999 168 -999
2007-01-22 08:14:47 51°13.619 2°56.043 128.3 -999 140 -999
2007-01-22 08:14:52 51°13.619 2°56.043 128.2 -999 65 -999
2007-01-22 08:14:57 51°13.619 2°56.043 128.2 -999 140 -999
2007-01-22 08:15:02 51°13.618 2°56.043 128.1 -999 211 -999
2007-01-22 08:15:07 51°13.618 2°56.043 128.1 -999 232 -999
2007-01-22 08:15:12 51°13.618 2°56.043 128.1 -999 204 -999
2007-01-22 08:15:17 51°13.619 2°56.043 128.1 -999 160 -999
2007-01-22 08:15:22 51°13.619 2°56.043 128.1 -999 214 -999
2007-01-22 08:15:27 51°13.619 2°56.043 128.1 -999 85 6.7
2007-01-22 08:15:32 51°13.619 2°56.043 128 -999 228 -999
2007-01-22 08:15:37 51°13.619 2°56.044 127.9 -999 54 -999
2007-01-22 08:15:42 51°13.619 2°56.044 127.9 -999 244 -999
2007-01-22 08:15:47 51°13.619 2°56.044 127.9 -999 233 -999
2007-01-22 08:15:52 51°13.619 2°56.044 127.8 -999 176 -999
2007-01-22 08:15:57 51°13.619 2°56.044 127.7 -999 211 6.7
2007-01-22 08:16:02 51°13.619 2°56.044 127.4 -999 183 6.7
2007-01-22 08:16:07 51°13.619 2°56.044 127 -999 145 6.7
2007-01-22 08:16:11 51°13.619 2°56.044 126.4 0.1 178 6.7
2007-01-22 08:16:16 51°13.619 2°56.044 125.9 -999 180 6.7
2007-01-22 08:16:21 51°13.619 2°56.044 124.9 0.1 179 6.7
2007-01-22 08:16:26 51°13.619 2°56.044 123.9 0.1 181 6.7
2007-01-22 08:16:31 51°13.619 2°56.044 122.8 0.1 191 6.8
2007-01-22 08:16:36 51°13.619 2°56.044 121.8 0.1 201 6.8
2007-01-22 08:16:41 51°13.619 2°56.044 120.5 0.1 186 6.8
2007-01-22 08:16:46 51°13.619 2°56.044 119.6 0.1 189 -999
2007-01-22 08:16:51 51°13.619 2°56.044 118.4 0.1 184 7
2007-01-22 08:16:56 51°13.619 2°56.044 117.5 0.1 203 6.9
2007-01-22 08:17:02 51°13.618 2°56.043 116.8 0.1 263 -999
2007-01-22 08:17:07 51°13.618 2°56.043 115.9 0.2 289 7
2007-01-22 08:17:12 51°13.619 2°56.043 115.4 0.3 293 7.1
2007-01-22 08:17:16 51°13.619 2°56.042 115.4 0.5 296 7
2007-01-22 08:17:21 51°13.619 2°56.04 115.4 0.7 296 7
2007-01-22 08:17:26 51°13.62 2°56.039 115.4 1 298 7.4
2007-01-22 08:17:31 51°13.621 2°56.036 115.4 1.2 295 7.1
2007-01-22 08:17:36 51°13.622 2°56.034 115.4 1.4 297 7
2007-01-22 08:17:41 51°13.623 2°56.03 115.4 1.6 294 7.3
2007-01-22 08:17:46 51°13.624 2°56.027 115.5 1.9 295 4.7
2007-01-22 08:17:51 51°13.625 2°56.022 115.8 2.2 295 -999
2007-01-22 08:17:57 51°13.627 2°56.016 116.3 2.5 295 -999
2007-01-22 08:18:02 51°13.629 2°56.011 116.9 2.8 295 -999
2007-01-22 08:18:07 51°13.63 2°56.005 117.5 3.1 295 -999
2007-01-22 08:18:12 51°13.632 2°55.998 117.9 3.3 296 -999
2007-01-22 08:18:17 51°13.635 2°55.991 118.2 3.5 296 -999
2007-01-22 08:18:22 51°13.637 2°55.984 118.2 3.6 296 -999
2007-01-22 08:18:27 51°13.639 2°55.977 118.1 3.7 296 -999
2007-01-22 08:18:32 51°13.642 2°55.969 117.6 3.8 295 -999
2007-01-22 08:18:37 51°13.644 2°55.961 117.1 3.9 295 -999
2007-01-22 08:18:42 51°13.646 2°55.953 116.5 4 294 -999
2007-01-22 08:18:47 51°13.648 2°55.945 115.9 4.1 293 -999
2007-01-22 08:18:52 51°13.651 2°55.936 115.2 4.2 293 -999
2007-01-22 08:18:57 51°13.653 2°55.927 114.8 4.4 292 -999
2007-01-22 08:19:02 51°13.655 2°55.918 114.5 4.4 292 -999
2007-01-22 08:19:07 51°13.657 2°55.909 114.1 4.2 291 -999
2007-01-22 08:19:12 51°13.659 2°55.901 113.7 4.1 292 -999
2007-01-22 08:19:17 51°13.661 2°55.893 113.3 4 291 -999
2007-01-22 08:19:22 51°13.664 2°55.884 113.1 3.9 291 -999
2007-01-22 08:19:27 51°13.665 2°55.876 112.8 3.9 290 4.6
2007-01-22 08:19:32 51°13.667 2°55.869 112.2 3.8 291 4.7
2007-01-22 08:19:36 51°13.669 2°55.863 111.6 3.7 291 8.6
2007-01-22 08:19:41 51°13.67 2°55.855 110.8 3.6 290 8.6
2007-01-22 08:19:46 51°13.672 2°55.848 109.7 3.5 290 8.6
2007-01-22 08:19:51 51°13.673 2°55.841 108.5 3.3 290 8.6
2007-01-22 08:19:56 51°13.675 2°55.834 107.3 3.2 289 8.7
2007-01-22 08:20:01 51°13.676 2°55.827 105.9 3.1 289 8.7
2007-01-22 08:20:05 51°13.677 2°55.822 104.5 3.1 288 8.6
2007-01-22 08:20:11 51°13.679 2°55.814 102.7 3.1 286 8.6
2007-01-22 08:20:15 51°13.68 2°55.809 100.8 3 284 -999
2007-01-22 08:20:20 51°13.681 2°55.803 98.8 2.9 282 8.3
2007-01-22 08:20:25 51°13.681 2°55.797 96.7 2.8 282 8.4
2007-01-22 08:20:30 51°13.682 2°55.791 94.5 2.7 278 8.6
2007-01-22 08:20:35 51°13.682 2°55.785 92.4 2.6 277 8.9
2007-01-22 08:20:40 51°13.683 2°55.78 90.3 2.5 275 9
2007-01-22 08:20:44 51°13.683 2°55.776 88.4 2.4 274 9
2007-01-22 08:20:49 51°13.683 2°55.771 86.3 2.2 271 9.3
2007-01-22 08:20:54 51°13.683 2°55.766 84.4 2 270 9.2
2007-01-22 08:20:59 51°13.683 2°55.762 82.2 1.7 268 9.3
2007-01-22 08:21:04 51°13.682 2°55.759 79.9 1.5 266 8.9
2007-01-22 08:21:08 51°13.682 2°55.757 77.5 1.3 267 8.7
2007-01-22 08:21:13 51°13.682 2°55.755 75.3 1.1 266 8.6
2007-01-22 08:21:17 51°13.682 2°55.753 73.1 0.8 273 8.5
2007-01-22 08:21:23 51°13.682 2°55.752 70.9 0.5 287 8.5
2007-01-22 08:21:29 51°13.683 2°55.751 68.6 0.3 335 8.6
2007-01-22 08:21:33 51°13.683 2°55.751 65.4 0.4 11 8.8
2007-01-22 08:21:39 51°13.684 2°55.752 61.6 0.5 19 9.1
2007-01-22 08:21:43 51°13.685 2°55.752 57.8 0.6 28 9.4
2007-01-22 08:21:48 51°13.686 2°55.753 54.2 0.7 31 9.8
2007-01-22 08:21:53 51°13.687 2°55.754 50.7 0.9 29 9.6
2007-01-22 08:21:58 51°13.688 2°55.755 47 1 28 10.2
2007-01-22 08:22:04 51°13.69 2°55.756 43.2 1.1 25 10.2
2007-01-22 08:22:08 51°13.691 2°55.757 39.5 1.3 24 10.1
2007-01-22 08:22:13 51°13.693 2°55.758 35.3 1.5 19 10
2007-01-22 08:22:18 51°13.695 2°55.759 30.6 1.6 14 10.4
2007-01-22 08:22:23 51°13.698 2°55.76 25.7 1.8 10 11.1
2007-01-22 08:22:28 51°13.7 2°55.76 20.6 1.9 5 11.3
2007-01-22 08:22:33 51°13.703 2°55.76 15.4 2 1 11.5
2007-01-22 08:22:38 51°13.706 2°55.76 10.5 2.1 356 11.4
2007-01-22 08:22:43 51°13.709 2°55.759 5.4 2.2 350 11
2007-01-22 08:22:48 51°13.712 2°55.758 0.5 2.3 347 10.6
2007-01-22 08:22:53 51°13.715 2°55.757 355.6 2.5 342 10.4
2007-01-22 08:22:58 51°13.719 2°55.754 349.8 2.6 336 10.3
2007-01-22 08:23:03 51°13.722 2°55.752 344.2 2.8 332 10.1
2007-01-22 08:23:08 51°13.726 2°55.748 338.4 3 329 10
2007-01-22 08:23:13 51°13.729 2°55.744 333.7 3.3 326 9.7
2007-01-22 08:23:19 51°13.734 2°55.739 331.2 3.7 325 9.4
2007-01-22 08:23:23 51°13.738 2°55.734 329.8 4 323 8.9
2007-01-22 08:23:28 51°13.743 2°55.729 328.9 4.3 323 8.4
2007-01-22 08:23:33 51°13.748 2°55.723 328.7 4.5 323 8.6
2007-01-22 08:23:39 51°13.754 2°55.715 328.6 5 323 8.4
2007-01-22 08:23:43 51°13.759 2°55.709 328.7 5.3 323 8.4
2007-01-22 08:23:48 51°13.765 2°55.702 329.1 5.6 324 8.5
2007-01-22 08:23:53 51°13.772 2°55.695 329.4 5.8 324 8.3
2007-01-22 08:23:58 51°13.779 2°55.687 329.5 6.1 324 8.1
2007-01-22 08:24:03 51°13.786 2°55.679 329.7 6.3 325 8.1
2007-01-22 08:24:08 51°13.793 2°55.671 329.8 6.5 326 8.3
2007-01-22 08:24:13 51°13.801 2°55.662 330.3 6.6 327 8.9
2007-01-22 08:24:18 51°13.809 2°55.655 331.6 6.9 329 9.1
2007-01-22 08:24:23 51°13.817 2°55.647 333.1 7.1 330 9.2
2007-01-22 08:24:29 51°13.828 2°55.638 334.5 7.2 332 9.2
2007-01-22 08:24:33 51°13.835 2°55.632 336.1 7.3 333 8.8
2007-01-22 08:24:38 51°13.844 2°55.624 337.2 7.4 333 9.2
2007-01-22 08:24:43 51°13.853 2°55.617 337.8 7.5 334 9
2007-01-22 08:24:48 51°13.863 2°55.61 338.4 7.6 335 9.3
2007-01-22 08:24:53 51°13.873 2°55.603 339.5 7.7 335 9.4
2007-01-22 08:24:58 51°13.882 2°55.596 340 7.7 335 9.4
2007-01-22 08:25:03 51°13.892 2°55.588 339.9 7.8 335 9.3
2007-01-22 08:25:08 51°13.902 2°55.581 339.9 7.8 335 9.3
2007-01-22 08:25:13 51°13.912 2°55.574 340.1 7.9 336 9.3
2007-01-22 08:25:18 51°13.922 2°55.567 340.5 7.9 337 9.3
2007-01-22 08:25:23 51°13.932 2°55.56 341.2 8 337 9.2
2007-01-22 08:25:28 51°13.942 2°55.553 341.3 8 336 9.2
2007-01-22 08:25:33 51°13.953 2°55.546 341.1 8.1 336 9.2
2007-01-22 08:25:39 51°13.965 2°55.537 341 8 336 9.2
2007-01-22 08:25:43 51°13.973 2°55.532 341 8 336 9.2
2007-01-22 08:25:48 51°13.983 2°55.525 341.1 8 336 9.2
2007-01-22 08:25:53 51°13.994 2°55.517 340.7 8 336 9.2
2007-01-22 08:25:59 51°14.006 2°55.509 340.5 8 337 9.2
2007-01-22 08:26:03 51°14.014 2°55.503 340.9 8 336 9.2
2007-01-22 08:26:08 51°14.025 2°55.496 341.5 8.1 337 9.2
2007-01-22 08:26:13 51°14.035 2°55.489 341.6 8.1 336 9.2
2007-01-22 08:26:18 51°14.045 2°55.482 341.2 8.1 336 9.2
2007-01-22 08:26:23 51°14.055 2°55.474 341.1 8.1 336 9.2
2007-01-22 08:26:28 51°14.066 2°55.467 341.1 8.1 336 9.2
2007-01-22 08:26:33 51°14.076 2°55.46 340.8 8.1 335 9.2
2007-01-22 08:26:38 51°14.086 2°55.452 339.7 8.1 334 9.2
2007-01-22 08:26:43 51°14.096 2°55.444 339.4 8.1 334 9.2
2007-01-22 08:26:49 51°14.108 2°55.435 339.2 8.1 335 9.3
2007-01-22 08:26:53 51°14.116 2°55.428 339.3 8.1 335 9.2
2007-01-22 08:26:59 51°14.128 2°55.419 339.1 8.1 334 9.3
2007-01-22 08:27:03 51°14.136 2°55.413 338.5 8.1 333 9.3
2007-01-22 08:27:09 51°14.148 2°55.402 337.5 8.1 332 9.3
2007-01-22 08:27:13 51°14.156 2°55.395 336.4 8.1 331 9.3
2007-01-22 08:27:18 51°14.166 2°55.386 335.7 8.1 330 9.3
2007-01-22 08:27:23 51°14.176 2°55.378 335 8.1 330 9.3
2007-01-22 08:27:28 51°14.185 2°55.368 334.5 8.1 329 9.3
2007-01-22 08:27:33 51°14.195 2°55.359 333.9 8.1 329 9.3
2007-01-22 08:27:38 51°14.204 2°55.349 333.3 8.1 327 9.3
2007-01-22 08:27:43 51°14.214 2°55.339 332 8.1 325 9.4
2007-01-22 08:27:48 51°14.223 2°55.328 329.7 8.2 323 9.4
2007-01-22 08:27:53 51°14.232 2°55.317 327.1 8.4 321 9.4
2007-01-22 08:27:59 51°14.243 2°55.302 325.1 8.6 319 9.4
2007-01-22 08:28:03 51°14.25 2°55.291 323.2 8.9 317 9.3
2007-01-22 08:28:08 51°14.259 2°55.277 321.1 9.2 315 9.4
2007-01-22 08:28:13 51°14.268 2°55.262 319.5 9.4 314 9.4
2007-01-22 08:28:18 51°14.277 2°55.246 318.6 9.7 313 9.4
2007-01-22 08:28:23 51°14.286 2°55.23 317.1 9.9 311 9.4
2007-01-22 08:28:28 51°14.295 2°55.213 315.7 10.1 310 9.4
2007-01-22 08:28:33 51°14.304 2°55.195 314.4 10.2 309 9.2
2007-01-22 08:28:38 51°14.313 2°55.177 313.5 10.3 308 9.1
2007-01-22 08:28:43 51°14.321 2°55.159 312.4 10.5 307 9.1
2007-01-22 08:28:48 51°14.33 2°55.14 311.5 10.6 307 9
2007-01-22 08:28:53 51°14.339 2°55.121 311.3 10.7 307 9.1
2007-01-22 08:28:58 51°14.348 2°55.103 311.8 10.8 308 8.9
2007-01-22 08:29:03 51°14.358 2°55.083 312.3 11 307 8.7
2007-01-22 08:29:09 51°14.369 2°55.06 312 11.2 307 8.7
2007-01-22 08:29:13 51°14.376 2°55.044 311.6 11.3 306 8.7
2007-01-22 08:29:19 51°14.387 2°55.018 311.3 11.7 306 8.8
2007-01-22 08:29:23 51°14.395 2°55.001 310.8 11.8 304 8.9
2007-01-22 08:29:28 51°14.404 2°54.98 310.1 12 303 8.9
2007-01-22 08:29:33 51°14.413 2°54.957 309.3 12 302 8.9
2007-01-22 08:29:39 51°14.422 2°54.929 308 12.2 298 9
2007-01-22 08:29:43 51°14.428 2°54.909 304.2 12.3 293 9
2007-01-22 08:29:48 51°14.433 2°54.883 299.3 12.5 289 9.1
2007-01-22 08:29:53 51°14.439 2°54.857 296.5 12.5 287 9.1
2007-01-22 08:29:59 51°14.444 2°54.825 293.7 12.6 285 9.5
2007-01-22 08:30:03 51°14.447 2°54.803 292 12.6 282 8.9
2007-01-22 08:30:08 51°14.45 2°54.776 288.9 12.4 278 9.2
2007-01-22 08:30:13 51°14.449 2°54.749 280.9 12.3 268 8.7
2007-01-22 08:30:19 51°14.445 2°54.716 271.2 12.5 259 9.4
2007-01-22 08:30:23 51°14.442 2°54.694 264.7 12.7 259 9.1
2007-01-22 08:30:28 51°14.438 2°54.667 262.2 12.9 257 9.1
2007-01-22 08:30:33 51°14.434 2°54.639 261.1 13.1 257 9
2007-01-22 08:30:38 51°14.43 2°54.61 261 13.3 257 9.1
2007-01-22 08:30:43 51°14.425 2°54.581 260.7 13.5 256 9
2007-01-22 08:30:48 51°14.42 2°54.552 259.8 13.6 254 8.8
2007-01-22 08:30:53 51°14.415 2°54.523 259 13.7 254 8.7
2007-01-22 08:30:58 51°14.41 2°54.494 258.4 13.8 253 8.4
2007-01-22 08:31:03 51°14.404 2°54.465 257.6 13.8 253 8.1
2007-01-22 08:31:08 51°14.398 2°54.436 257.5 13.8 252 7.8
2007-01-22 08:31:13 51°14.392 2°54.407 257.1 13.8 251 7.7
2007-01-22 08:31:18 51°14.386 2°54.378 255.5 13.8 251 7.6
2007-01-22 08:31:23 51°14.379 2°54.35 255 13.8 248 7.5
2007-01-22 08:31:28 51°14.373 2°54.321 254 13.8 250 7.5
2007-01-22 08:31:33 51°14.365 2°54.293 253.4 13.8 247 7.4
2007-01-22 08:31:39 51°14.356 2°54.259 251.8 13.8 246 7.4
2007-01-22 08:31:43 51°14.35 2°54.237 251.1 13.9 246 7.4
2007-01-22 08:31:48 51°14.342 2°54.209 250.2 14 246 7.3
2007-01-22 08:31:53 51°14.334 2°54.181 249.8 14 245 7.4
2007-01-22 08:31:59 51°14.325 2°54.147 250.1 14 247 7.4
2007-01-22 08:32:03 51°14.318 2°54.124 250.8 14 247 7.4
2007-01-22 08:32:08 51°14.311 2°54.096 251 14 248 7.3
2007-01-22 08:32:13 51°14.304 2°54.067 252.2 14.1 248 7.4
2007-01-22 08:32:19 51°14.296 2°54.032 252.9 14 250 7.4
2007-01-22 08:32:23 51°14.29 2°54.009 254 14 249 7.3
2007-01-22 08:32:28 51°14.283 2°53.98 253.8 14.1 250 7.4
2007-01-22 08:32:33 51°14.277 2°53.95 254.7 14.1 249 7.4
2007-01-22 08:32:38 51°14.27 2°53.921 254.6 14.1 252 7.5
2007-01-22 08:32:43 51°14.263 2°53.892 255.1 14.1 249 7.6
2007-01-22 08:32:48 51°14.257 2°53.862 255.1 14.1 250 7.5
2007-01-22 08:32:53 51°14.25 2°53.833 255.1 14.1 249 7.5
2007-01-22 08:32:58 51°14.242 2°53.804 254 14.2 246 7.5
2007-01-22 08:33:03 51°14.235 2°53.776 251.8 14.2 246 7.5
2007-01-22 08:33:09 51°14.224 2°53.742 250 14.2 243 7.6
2007-01-22 08:33:13 51°14.216 2°53.72 248.3 14.1 242 5.5
2007-01-22 08:33:19 51°14.205 2°53.688 246 14.2 240 7.5
2007-01-22 08:33:23 51°14.197 2°53.666 244.4 14.3 240 7.6
2007-01-22 08:33:28 51°14.186 2°53.639 243 14.3 238 7.6
2007-01-22 08:33:32 51°14.178 2°53.617 242.3 14.3 239 7.7
2007-01-22 08:33:38 51°14.165 2°53.585 242 14.2 239 7.7
2007-01-22 08:33:43 51°14.155 2°53.559 241.7 14.2 238 7.7
2007-01-22 08:33:48 51°14.145 2°53.532 241.8 14.4 239 7.7
2007-01-22 08:33:53 51°14.135 2°53.504 243.1 14.4 241 7.7
2007-01-22 08:33:58 51°14.125 2°53.476 243.8 14.4 241 7.8
2007-01-22 08:34:03 51°14.116 2°53.448 244.5 14.3 242 7.7
2007-01-22 08:34:08 51°14.106 2°53.421 245 14.3 241 7.8
2007-01-22 08:34:13 51°14.097 2°53.392 245.9 14.4 242 7.9
2007-01-22 08:34:18 51°14.088 2°53.364 246.2 14.4 242 7.9
2007-01-22 08:34:23 51°14.078 2°53.337 246.4 14.4 242 7.9
2007-01-22 08:34:28 51°14.069 2°53.309 245.8 14.4 241 7.9
2007-01-22 08:34:33 51°14.059 2°53.281 245.6 14.4 241 8
2007-01-22 08:34:38 51°14.048 2°53.254 244.1 14.5 239 8
2007-01-22 08:34:43 51°14.038 2°53.226 243.7 14.5 240 8
2007-01-22 08:34:48 51°14.028 2°53.198 243.4 14.4 239 8.1
2007-01-22 08:34:53 51°14.017 2°53.172 242.4 14.5 237 8
2007-01-22 08:34:58 51°14.007 2°53.144 242.4 14.5 240 8
2007-01-22 08:35:03 51°13.996 2°53.117 242.2 14.5 238 8.1
2007-01-22 08:35:08 51°13.986 2°53.089 242.8 14.5 240 8
2007-01-22 08:35:13 51°13.977 2°53.061 243.4 14.6 241 8.2
2007-01-22 08:35:18 51°13.966 2°53.033 244.5 14.6 240 8.2
2007-01-22 08:35:23 51°13.958 2°53.004 245.2 14.6 243 8.3
2007-01-22 08:35:28 51°13.948 2°52.976 246.2 14.6 242 8.1
2007-01-22 08:35:33 51°13.939 2°52.946 247.3 14.6 245 8.3
2007-01-22 08:35:38 51°13.93 2°52.917 248.9 14.5 244 8.2
2007-01-22 08:35:43 51°13.922 2°52.888 248.4 14.7 244 8.2
2007-01-22 08:35:48 51°13.913 2°52.859 249.3 14.6 245 8.3
2007-01-22 08:35:53 51°13.903 2°52.831 247.5 14.6 241 8.3
2007-01-22 08:35:57 51°13.896 2°52.807 246.5 14.7 243 8.3
2007-01-22 08:36:03 51°13.883 2°52.774 245.7 14.7 240 8.3
2007-01-22 08:36:08 51°13.874 2°52.746 244.5 14.6 241 8.3
2007-01-22 08:36:13 51°13.863 2°52.718 243.3 14.7 238 8.4
2007-01-22 08:36:17 51°13.855 2°52.696 242.9 14.7 239 8.4
2007-01-22 08:36:23 51°13.842 2°52.663 243 14.7 239 8.5
2007-01-22 08:36:28 51°13.831 2°52.635 242.8 14.7 239 8.5
2007-01-22 08:36:34 51°13.819 2°52.602 242.5 14.7 240 8.5
2007-01-22 08:36:39 51°13.808 2°52.574 243.4 14.7 238 8.4
2007-01-22 08:36:44 51°13.798 2°52.546 242.7 14.7 241 8.6
2007-01-22 08:36:48 51°13.79 2°52.524 243.8 14.7 240 8.5
2007-01-22 08:36:53 51°13.78 2°52.495 244.2 14.7 241 8.6
2007-01-22 08:36:58 51°13.77 2°52.467 244.5 14.8 241 8.5
2007-01-22 08:37:03 51°13.76 2°52.439 244.9 14.6 241 8.6
2007-01-22 08:37:08 51°13.749 2°52.411 244.8 14.6 240 8.6
2007-01-22 08:37:13 51°13.739 2°52.382 243.8 14.7 241 8.5
2007-01-22 08:37:18 51°13.729 2°52.354 244.7 14.7 240 8.6
2007-01-22 08:37:23 51°13.719 2°52.326 244 14.7 240 8.6
2007-01-22 08:37:28 51°13.708 2°52.298 243.7 14.8 239 8.6
2007-01-22 08:37:33 51°13.698 2°52.27 243.5 14.7 241 8.6
2007-01-22 08:37:38 51°13.688 2°52.242 243.7 14.7 238 8.6
2007-01-22 08:37:43 51°13.678 2°52.213 243.1 14.8 241 8.6
2007-01-22 08:37:48 51°13.667 2°52.185 243.9 14.7 240 8.6
2007-01-22 08:37:53 51°13.657 2°52.157 243.7 14.8 239 8.7
2007-01-22 08:37:58 51°13.647 2°52.129 243.7 14.7 240 8.7
2007-01-22 08:38:02 51°13.639 2°52.107 244 14.8 239 8.7
2007-01-22 08:38:08 51°13.626 2°52.073 243.6 14.8 240 8.6
2007-01-22 08:38:13 51°13.616 2°52.045 243.5 14.8 240 8.7
2007-01-22 08:38:18 51°13.605 2°52.017 243.8 14.7 240 8.7
2007-01-22 08:38:22 51°13.597 2°51.995 243.4 14.8 240 8.7
2007-01-22 08:38:28 51°13.585 2°51.961 243.8 14.7 240 8.6
2007-01-22 08:38:33 51°13.574 2°51.933 243.3 14.8 239 8.7
2007-01-22 08:38:38 51°13.564 2°51.904 243.7 14.7 240 8.6
2007-01-22 08:38:42 51°13.556 2°51.882 243.8 14.7 240 8.7
2007-01-22 08:38:48 51°13.544 2°51.848 243.7 14.8 240 8.7
2007-01-22 08:38:53 51°13.534 2°51.819 243.8 14.8 241 8.6
2007-01-22 08:38:58 51°13.523 2°51.792 243.8 14.7 239 8.7
2007-01-22 08:39:02 51°13.516 2°51.769 244.4 14.7 241 8.7
2007-01-22 08:39:09 51°13.501 2°51.729 244.2 14.8 239 8.8
2007-01-22 08:39:13 51°13.493 2°51.707 244.5 14.8 241 8.8
2007-01-22 08:39:19 51°13.481 2°51.673 244.2 14.7 241 8.8
2007-01-22 08:39:24 51°13.47 2°51.645 243.9 14.7 240 8.8
2007-01-22 08:39:29 51°13.46 2°51.616 244.1 14.8 241 8.9
2007-01-22 08:39:34 51°13.45 2°51.588 244.2 14.8 240 8.8
2007-01-22 08:39:38 51°13.442 2°51.565 244.4 14.7 241 8.9
2007-01-22 08:39:43 51°13.432 2°51.537 244.4 14.8 240 8.8
2007-01-22 08:39:49 51°13.42 2°51.503 244.5 14.8 241 8.9
2007-01-22 08:39:53 51°13.412 2°51.48 244.5 14.7 240 8.9
2007-01-22 08:39:59 51°13.4 2°51.447 244.4 14.6 240 8.9
2007-01-22 08:40:03 51°13.391 2°51.424 243.8 14.8 240 8.9
2007-01-22 08:40:09 51°13.379 2°51.39 244.5 14.7 239 8.9
2007-01-22 08:40:13 51°13.371 2°51.368 243.6 14.7 240 8.9
2007-01-22 08:40:19 51°13.359 2°51.334 243.6 14.7 240 8.9
2007-01-22 08:40:23 51°13.35 2°51.311 243.7 14.8 240 8.9
2007-01-22 08:40:29 51°13.338 2°51.277 244.4 14.8 241 8.9
2007-01-22 08:40:34 51°13.328 2°51.249 244.5 14.7 241 8.9
2007-01-22 08:40:38 51°13.32 2°51.226 244.6 14.8 240 8.9
2007-01-22 08:40:43 51°13.31 2°51.198 244.7 14.7 241 9.2
2007-01-22 08:40:49 51°13.298 2°51.164 245 14.7 240 9
2007-01-22 08:40:54 51°13.289 2°51.135 244.5 14.8 242 9
2007-01-22 08:40:59 51°13.278 2°51.107 244.7 14.7 240 9
2007-01-22 08:41:03 51°13.27 2°51.084 243.9 14.8 241 9
2007-01-22 08:41:09 51°13.258 2°51.05 243.8 14.9 240 9
2007-01-22 08:41:14 51°13.248 2°51.022 244.4 14.8 241 9
2007-01-22 08:41:19 51°13.237 2°50.994 244 14.7 240 9
2007-01-22 08:41:23 51°13.229 2°50.971 244 14.8 241 9.1
2007-01-22 08:41:29 51°13.217 2°50.937 244.5 14.7 241 9.1
2007-01-22 08:41:33 51°13.209 2°50.914 244.6 14.7 240 9
2007-01-22 08:41:39 51°13.197 2°50.88 244.2 14.8 242 9.1
2007-01-22 08:41:44 51°13.187 2°50.852 244.8 14.7 240 9
2007-01-22 08:41:49 51°13.177 2°50.823 244.4 14.8 241 9.1
2007-01-22 08:41:53 51°13.169 2°50.8 244.9 14.8 241 9.1
2007-01-22 08:41:58 51°13.159 2°50.772 244.9 14.8 241 9.2
2007-01-22 08:42:03 51°13.15 2°50.743 244.6 14.8 241 9.1
2007-01-22 08:42:09 51°13.138 2°50.708 244.9 14.8 241 9.2
2007-01-22 08:42:13 51°13.13 2°50.686 244.9 14.8 241 9.2
2007-01-22 08:42:19 51°13.118 2°50.651 244.7 14.8 241 9.2
2007-01-22 08:42:23 51°13.11 2°50.628 244.8 14.8 241 9.3
2007-01-22 08:42:29 51°13.097 2°50.594 244.5 14.9 240 9.2
2007-01-22 08:42:33 51°13.09 2°50.571 244.7 14.9 242 9.2
2007-01-22 08:42:39 51°13.077 2°50.537 244.7 14.8 241 9.3
2007-01-22 08:42:43 51°13.07 2°50.514 244.7 14.8 242 9.2
2007-01-22 08:42:49 51°13.057 2°50.48 244.6 14.9 241 9.3
2007-01-22 08:42:54 51°13.047 2°50.451 244.5 14.8 241 9.3
2007-01-22 08:42:59 51°13.037 2°50.423 244.5 14.8 240 9.2
2007-01-22 08:43:03 51°13.029 2°50.4 244.3 14.8 241 9.3
2007-01-22 08:43:09 51°13.016 2°50.366 244.3 14.9 241 9.3
2007-01-22 08:43:14 51°13.006 2°50.338 244.3 14.8 240 9.4
2007-01-22 08:43:19 51°12.996 2°50.31 244.3 14.7 240 9.4
2007-01-22 08:43:23 51°12.987 2°50.287 243.6 14.8 239 9.3
2007-01-22 08:43:29 51°12.975 2°50.253 243.8 14.8 240 9.4
2007-01-22 08:43:34 51°12.965 2°50.225 243.9 14.9 240 9.4
2007-01-22 08:43:39 51°12.955 2°50.196 243.9 14.9 241 9.4
2007-01-22 08:43:43 51°12.947 2°50.174 244.6 14.8 240 9.4
2007-01-22 08:43:49 51°12.935 2°50.139 244.3 14.8 242 9.4
2007-01-22 08:43:54 51°12.925 2°50.11 245.1 14.8 241 9.4
2007-01-22 08:43:59 51°12.915 2°50.081 245 14.9 241 9.5
2007-01-22 08:44:03 51°12.908 2°50.058 245.4 14.9 242 9.4
2007-01-22 08:44:09 51°12.896 2°50.024 245.9 14.9 241 9.4
2007-01-22 08:44:13 51°12.888 2°50 245.6 14.8 243 9.6
2007-01-22 08:44:19 51°12.876 2°49.966 245.3 14.9 240 9.5
2007-01-22 08:44:24 51°12.867 2°49.937 244.9 14.9 243 9.5
2007-01-22 08:44:29 51°12.856 2°49.909 245.3 14.8 240 9.5
2007-01-22 08:44:33 51°12.848 2°49.886 244.4 14.9 241 9.5
2007-01-22 08:44:38 51°12.839 2°49.857 245.6 14.8 242 9.6
2007-01-22 08:44:43 51°12.829 2°49.828 246 14.8 242 9.6
2007-01-22 08:44:49 51°12.818 2°49.793 246.4 14.8 243 9.6
2007-01-22 08:44:53 51°12.811 2°49.769 247.2 14.8 243 9.5
2007-01-22 08:44:59 51°12.8 2°49.734 247.5 14.8 244 9.6
2007-01-22 08:45:03 51°12.793 2°49.71 248 14.9 243 9.6
2007-01-22 08:45:09 51°12.782 2°49.675 248.4 14.8 244 9.7
2007-01-22 08:45:13 51°12.775 2°49.651 248.2 14.9 244 9.7
2007-01-22 08:45:19 51°12.764 2°49.616 248.5 14.8 244 9.7
2007-01-22 08:45:23 51°12.756 2°49.593 247.9 14.8 243 9.7
2007-01-22 08:45:29 51°12.746 2°49.557 247.9 14.8 243 9.7
2007-01-22 08:45:34 51°12.736 2°49.528 247.2 14.9 243 9.7
2007-01-22 08:45:39 51°12.727 2°49.499 247.6 14.8 243 9.8
2007-01-22 08:45:43 51°12.72 2°49.476 247.2 14.8 244 9.8
2007-01-22 08:45:49 51°12.709 2°49.44 247.1 14.9 243 9.8
2007-01-22 08:45:53 51°12.702 2°49.417 247.7 14.8 244 9.8
2007-01-22 08:45:59 51°12.69 2°49.382 247.7 14.8 243 9.9
2007-01-22 08:46:04 51°12.682 2°49.353 247.3 14.8 245 9.8
2007-01-22 08:46:09 51°12.673 2°49.323 248.3 14.9 244 9.8
2007-01-22 08:46:13 51°12.666 2°49.299 249.3 14.8 246 9.9
2007-01-22 08:46:19 51°12.656 2°49.263 250.4 14.7 245 9.8
2007-01-22 08:46:23 51°12.65 2°49.239 250.2 14.8 247 9.9
2007-01-22 08:46:29 51°12.64 2°49.203 250.8 14.9 246 9.9
2007-01-22 08:46:33 51°12.633 2°49.179 250.8 14.9 247 9.9
2007-01-22 08:46:39 51°12.623 2°49.142 250.8 14.9 247 10
2007-01-22 08:46:43 51°12.617 2°49.118 251.1 14.9 247 10
2007-01-22 08:46:49 51°12.607 2°49.082 251.1 14.8 247 10.1
2007-01-22 08:46:53 51°12.6 2°49.058 250.9 14.9 246 10.1
2007-01-22 08:46:59 51°12.591 2°49.022 250.9 14.9 247 10.1
2007-01-22 08:47:03 51°12.584 2°48.998 250.6 14.9 245 10.1
2007-01-22 08:47:09 51°12.574 2°48.962 250.4 14.8 247 10.1
2007-01-22 08:47:14 51°12.565 2°48.932 250.8 14.9 245 10.1
2007-01-22 08:47:18 51°12.559 2°48.908 250.5 15 247 10.1
2007-01-22 08:47:23 51°12.551 2°48.878 251.2 14.9 246 10.1
2007-01-22 08:47:29 51°12.541 2°48.841 251.1 14.9 247 10.2
2007-01-22 08:47:34 51°12.533 2°48.811 251 14.9 247 10.2
2007-01-22 08:47:39 51°12.525 2°48.781 251.2 15 246 10.2
2007-01-22 08:47:43 51°12.519 2°48.756 251.2 15 248 10.2
2007-01-22 08:47:49 51°12.509 2°48.72 251.8 14.8 247 10.2
2007-01-22 08:47:54 51°12.501 2°48.69 251.2 14.9 247 10.3
2007-01-22 08:47:59 51°12.492 2°48.659 251.2 15 246 10.3
2007-01-22 08:48:03 51°12.486 2°48.635 251.4 14.9 247 10.3
2007-01-22 08:48:09 51°12.476 2°48.599 251.1 14.9 246 10.3
2007-01-22 08:48:14 51°12.468 2°48.568 250.9 15 247 10.3
2007-01-22 08:48:19 51°12.461 2°48.538 251.6 15 248 10.4
2007-01-22 08:48:23 51°12.454 2°48.514 252 14.8 247 10.4
2007-01-22 08:48:29 51°12.445 2°48.477 251.7 14.9 247 10.4
2007-01-22 08:48:33 51°12.438 2°48.453 251.5 15 248 10.4
2007-01-22 08:48:39 51°12.428 2°48.416 251.7 15 247 10.2
2007-01-22 08:48:43 51°12.422 2°48.392 251.6 14.9 248 10.4
2007-01-22 08:48:49 51°12.412 2°48.356 251.2 14.9 246 10.4
2007-01-22 08:48:54 51°12.404 2°48.325 251.1 15 247 10.5
2007-01-22 08:48:58 51°12.398 2°48.301 251.4 14.9 248 10.5
2007-01-22 08:49:04 51°12.388 2°48.264 251.6 15 247 10.5
2007-01-22 08:49:09 51°12.38 2°48.234 251.5 15 248 10.5
2007-01-22 08:49:14 51°12.372 2°48.203 251.7 14.9 248 10.5
2007-01-22 08:49:18 51°12.366 2°48.179 251.5 15 246 10.6
2007-01-22 08:49:23 51°12.358 2°48.148 251.1 15 247 10.6
2007-01-22 08:49:29 51°12.348 2°48.111 251.5 15 247 10.6
2007-01-22 08:49:33 51°12.342 2°48.087 251.6 14.9 247 10.6
2007-01-22 08:49:39 51°12.332 2°48.051 251.4 14.9 247 10.6
2007-01-22 08:49:43 51°12.325 2°48.026 250.9 15.1 247 10.7
2007-01-22 08:49:49 51°12.316 2°47.99 251.6 15 247 10.7
2007-01-22 08:49:54 51°12.308 2°47.96 251.5 14.8 247 10.6
2007-01-22 08:49:59 51°12.3 2°47.929 250.8 14.9 247 10.6
2007-01-22 08:50:03 51°12.293 2°47.905 251.1 15 247 10.6
2007-01-22 08:50:09 51°12.283 2°47.868 251.5 14.9 247 10.7
2007-01-22 08:50:14 51°12.275 2°47.838 251.6 14.9 246 10.7
2007-01-22 08:50:18 51°12.269 2°47.814 251.1 15 247 10.8
2007-01-22 08:50:23 51°12.261 2°47.784 251.4 15 247 10.8
2007-01-22 08:50:29 51°12.251 2°47.747 251.4 14.9 247 10.8
2007-01-22 08:50:34 51°12.243 2°47.717 251.1 14.9 247 10.8
2007-01-22 08:50:39 51°12.235 2°47.687 251.3 15 246 10.8
2007-01-22 08:50:43 51°12.228 2°47.662 251.1 15 247 10.8
2007-01-22 08:50:49 51°12.218 2°47.626 251 15 246 10.8
2007-01-22 08:50:54 51°12.21 2°47.595 250.9 15 248 10.8
2007-01-22 08:50:59 51°12.202 2°47.565 251.4 14.9 246 10.9
2007-01-22 08:51:03 51°12.196 2°47.54 251 15 248 10.8
2007-01-22 08:51:09 51°12.186 2°47.504 251.4 15.1 247 10.8
2007-01-22 08:51:13 51°12.18 2°47.479 251.5 15 247 10.9
2007-01-22 08:51:18 51°12.172 2°47.449 251.5 14.9 247 10.9
2007-01-22 08:51:23 51°12.164 2°47.418 251 15 247 10.9
2007-01-22 08:51:29 51°12.154 2°47.382 251.1 15 248 10.9
2007-01-22 08:51:33 51°12.148 2°47.357 251.7 14.9 247 11
2007-01-22 08:51:39 51°12.138 2°47.321 251.2 15 248 10.9
2007-01-22 08:51:44 51°12.13 2°47.29 251 15.1 247 10.8
2007-01-22 08:51:49 51°12.122 2°47.259 251.3 15 248 10.9
2007-01-22 08:51:54 51°12.114 2°47.229 251.3 15 246 10.9
2007-01-22 08:51:58 51°12.107 2°47.204 250.9 15.1 248 10.9
2007-01-22 08:52:03 51°12.099 2°47.174 251.4 15.1 247 11
2007-01-22 08:52:09 51°12.09 2°47.137 251.7 15.1 248 11
2007-01-22 08:52:14 51°12.082 2°47.106 252 15 247 11
2007-01-22 08:52:19 51°12.074 2°47.075 251.7 15 248 11
2007-01-22 08:52:23 51°12.068 2°47.051 251.8 15 248 11
2007-01-22 08:52:29 51°12.058 2°47.014 251.8 15.1 247 11
2007-01-22 08:52:33 51°12.052 2°46.989 251.4 15 248 11
2007-01-22 08:52:39 51°12.043 2°46.952 251.7 15 248 11
2007-01-22 08:52:44 51°12.035 2°46.922 251.3 15.1 247 11
2007-01-22 08:52:49 51°12.027 2°46.891 251.4 15 248 11.1
2007-01-22 08:52:53 51°12.021 2°46.866 251.8 15 247 11.1
2007-01-22 08:52:59 51°12.011 2°46.829 251.2 15.1 249 11
2007-01-22 08:53:03 51°12.004 2°46.805 251.8 15 246 11.1
2007-01-22 08:53:09 51°11.995 2°46.768 250.5 15.1 248 11
2007-01-22 08:53:13 51°11.988 2°46.744 251.1 15 247 11.1
2007-01-22 08:53:19 51°11.979 2°46.707 250.8 15 247 11.1
2007-01-22 08:53:23 51°11.972 2°46.683 251.1 15.1 247 11
2007-01-22 08:53:29 51°11.962 2°46.646 251.3 15.1 248 11.1
2007-01-22 08:53:33 51°11.956 2°46.621 251.8 15 248 11.1
2007-01-22 08:53:39 51°11.946 2°46.585 251.4 15 246 11.2
2007-01-22 08:53:43 51°11.94 2°46.56 250.8 15.2 248 11.1
2007-01-22 08:53:49 51°11.93 2°46.523 251.7 15.1 247 11.1
2007-01-22 08:53:53 51°11.923 2°46.499 251.2 15 247 11.2
2007-01-22 08:53:59 51°11.914 2°46.463 251.1 14.9 247 11.1
2007-01-22 08:54:03 51°11.907 2°46.438 250.8 15.1 246 11
2007-01-22 08:54:09 51°11.898 2°46.401 251.1 15.1 248 11.1
2007-01-22 08:54:14 51°11.889 2°46.37 251.7 15 247 11.1
2007-01-22 08:54:19 51°11.881 2°46.34 251.2 15.1 248 11.1
2007-01-22 08:54:23 51°11.875 2°46.315 251.6 15 247 11.1
2007-01-22 08:54:29 51°11.865 2°46.278 251.7 15 248 11.1
2007-01-22 08:54:34 51°11.857 2°46.248 251.1 15.1 247 11.1
2007-01-22 08:54:39 51°11.849 2°46.217 251.1 15.2 247 11.2
2007-01-22 08:54:43 51°11.843 2°46.192 251.5 15.1 247 11.1
2007-01-22 08:54:49 51°11.833 2°46.155 251 15.1 247 11.2
2007-01-22 08:54:54 51°11.825 2°46.124 251 15.2 247 11.2
2007-01-22 08:54:59 51°11.817 2°46.093 251.3 15.1 248 11.2
2007-01-22 08:55:03 51°11.811 2°46.069 251.8 15 247 11.2
2007-01-22 08:55:09 51°11.801 2°46.032 251.3 15 248 11.2